createdAt,value
2018-12-25T00:02:25.278Z,4.30
2018-12-25T00:05:06.870Z,4.10
2018-12-25T00:07:47.658Z,4.30
2018-12-25T00:10:28.983Z,4.20
2018-12-25T00:13:09.702Z,4.30
2018-12-25T00:15:51.354Z,4.40
2018-12-25T00:18:32.829Z,4.40
2018-12-25T00:21:13.717Z,4.40
2018-12-25T00:23:55.271Z,4.40
2018-12-25T00:26:36.103Z,4.30
2018-12-25T00:29:17.595Z,4.20
2018-12-25T00:31:59.024Z,4.30
2018-12-25T00:34:40.023Z,4.20
2018-12-25T00:37:21.530Z,4.20
2018-12-25T00:40:02.703Z,4.40
2018-12-25T00:42:44.178Z,4.40
2018-12-25T00:45:24.861Z,4.40
2018-12-25T00:48:05.695Z,4.40
2018-12-25T00:50:47.182Z,4.10
2018-12-25T00:53:28.113Z,4.30
2018-12-25T00:56:09.636Z,4.20
2018-12-25T00:58:50.318Z,4.30
2018-12-25T01:01:31.767Z,4.40
2018-12-25T01:04:13.343Z,4.50
2018-12-25T01:06:54.888Z,4.40
2018-12-25T01:09:36.181Z,4.30
2018-12-25T01:12:16.913Z,4.30
2018-12-25T01:14:58.223Z,4.30
2018-12-25T01:17:39.607Z,4.40
2018-12-25T01:20:21.229Z,4.40
2018-12-25T01:23:02.091Z,4.30
2018-12-25T01:25:43.657Z,4.30
2018-12-25T01:28:24.481Z,4.40
2018-12-25T01:31:06.046Z,4.40
2018-12-25T01:33:46.736Z,4.40
2018-12-25T01:36:28.172Z,4.40
2018-12-25T01:39:09.630Z,4.40
2018-12-25T01:41:50.921Z,4.40
2018-12-25T01:44:32.365Z,4.40
2018-12-25T01:47:13.929Z,4.40
2018-12-25T01:49:55.496Z,4.30
2018-12-25T01:52:36.237Z,4.40
2018-12-25T01:55:16.916Z,4.30
2018-12-25T01:57:57.625Z,4.30
2018-12-25T02:00:38.317Z,4.30
2018-12-25T02:03:19.181Z,4.30
2018-12-25T02:05:59.845Z,4.30
2018-12-25T02:08:41.134Z,4.20
2018-12-25T02:11:22.402Z,4.20
2018-12-25T02:14:03.737Z,3.70
2018-12-25T02:16:45.005Z,4.00
2018-12-25T02:19:26.430Z,4.10
2018-12-25T02:22:07.738Z,4.20
2018-12-25T02:24:49.239Z,4.20
2018-12-25T02:27:30.884Z,4.10
2018-12-25T02:30:11.668Z,3.80
2018-12-25T02:32:52.357Z,3.70
2018-12-25T02:35:34.012Z,3.90
2018-12-25T02:38:14.880Z,4.00
2018-12-25T02:40:56.369Z,4.00
2018-12-25T02:43:37.169Z,4.10
2018-12-25T02:46:18.674Z,4.00
2018-12-25T02:48:59.543Z,4.00
2018-12-25T02:51:40.350Z,4.10
2018-12-25T02:54:21.663Z,3.70
2018-12-25T02:57:03.182Z,3.80
2018-12-25T02:59:43.881Z,3.50
2018-12-25T03:02:24.520Z,3.40
2018-12-25T03:05:05.228Z,3.70
2018-12-25T03:07:46.114Z,3.90
2018-12-25T03:10:27.744Z,4.00
2018-12-25T03:13:08.454Z,4.00
2018-12-25T03:15:49.412Z,4.00
2018-12-25T03:18:30.831Z,4.00
2018-12-25T03:21:12.265Z,4.00
2018-12-25T03:23:53.822Z,4.00
2018-12-25T03:26:34.508Z,4.00
2018-12-25T03:29:15.226Z,3.90
2018-12-25T03:31:56.041Z,3.90
2018-12-25T03:34:37.448Z,3.90
2018-12-25T03:37:18.169Z,3.90
2018-12-25T03:39:59.749Z,3.90
2018-12-25T03:42:40.369Z,3.90
2018-12-25T03:45:21.989Z,3.90
2018-12-25T03:48:02.789Z,3.90
2018-12-25T03:50:43.610Z,3.90
2018-12-25T03:53:24.301Z,3.90
2018-12-25T03:56:05.010Z,3.80
2018-12-25T03:58:45.726Z,3.80
2018-12-25T04:01:26.556Z,3.80
2018-12-25T04:04:07.286Z,3.80
2018-12-25T04:09:56.328Z,3.80
2018-12-25T04:12:37.211Z,3.80
2018-12-25T04:15:17.867Z,3.80
2018-12-25T04:17:59.446Z,3.80
2018-12-25T04:20:40.139Z,3.80
2018-12-25T04:23:20.780Z,3.80
2018-12-25T04:26:02.368Z,3.70
2018-12-25T04:28:43.790Z,3.70
2018-12-25T04:31:25.289Z,3.70
2018-12-25T04:34:06.181Z,3.70
2018-12-25T04:36:46.880Z,3.70
2018-12-25T04:39:27.746Z,3.70
2018-12-25T04:42:09.302Z,3.70
2018-12-25T04:44:50.829Z,3.70
2018-12-25T04:47:32.292Z,3.70
2018-12-25T04:50:13.721Z,3.70
2018-12-25T04:52:55.160Z,3.70
2018-12-25T04:55:36.682Z,3.60
2018-12-25T04:58:17.324Z,3.60
2018-12-25T05:00:58.754Z,3.60
2018-12-25T05:03:40.315Z,3.70
2018-12-25T05:06:21.802Z,3.60
2018-12-25T05:09:03.896Z,3.60
2018-12-25T05:11:45.315Z,3.60
2018-12-25T05:14:26.012Z,3.50
2018-12-25T05:17:06.789Z,3.50
2018-12-25T05:19:47.517Z,3.50
2018-12-25T05:22:28.199Z,3.50
2018-12-25T05:25:09.724Z,3.50
2018-12-25T05:27:51.231Z,3.50
2018-12-25T05:30:31.895Z,3.50
2018-12-25T05:33:12.686Z,3.50
2018-12-25T05:35:53.345Z,3.50
2018-12-25T05:38:34.116Z,3.50
2018-12-25T05:41:15.666Z,3.40
2018-12-25T05:43:57.133Z,3.50
2018-12-25T05:46:37.902Z,3.40
2018-12-25T05:49:18.621Z,3.40
2018-12-25T05:52:00.150Z,3.40
2018-12-25T05:54:40.874Z,3.50
2018-12-25T05:57:21.649Z,3.40
2018-12-25T06:00:02.304Z,3.40
2018-12-25T06:02:43.761Z,2.90
2018-12-25T06:05:24.410Z,3.30
2018-12-25T06:08:05.782Z,3.40
2018-12-25T06:10:46.397Z,3.40
2018-12-25T06:13:27.101Z,3.40
2018-12-25T06:16:08.110Z,3.30
2018-12-25T06:18:48.784Z,3.30
2018-12-25T06:21:29.430Z,3.30
2018-12-25T06:24:10.839Z,3.40
2018-12-25T06:26:51.833Z,3.30
2018-12-25T06:29:33.459Z,3.30
2018-12-25T06:32:14.229Z,3.30
2018-12-25T06:34:55.118Z,3.30
2018-12-25T06:37:36.744Z,3.30
2018-12-25T06:40:17.362Z,3.30
2018-12-25T06:42:58.173Z,3.30
2018-12-25T06:45:39.666Z,3.20
2018-12-25T06:48:21.230Z,3.30
2018-12-25T06:51:03.978Z,3.30
2018-12-25T06:53:44.472Z,3.30
2018-12-25T06:56:25.192Z,3.30
2018-12-25T06:59:05.982Z,3.30
2018-12-25T07:01:46.694Z,3.30
2018-12-25T07:04:28.224Z,3.30
2018-12-25T07:07:08.815Z,3.30
2018-12-25T07:09:49.554Z,3.30
2018-12-25T07:12:30.389Z,3.30
2018-12-25T07:15:11.966Z,3.30
2018-12-25T07:17:52.813Z,3.20
2018-12-25T07:20:33.693Z,3.20
2018-12-25T07:23:14.397Z,3.20
2018-12-25T07:25:55.187Z,3.20
2018-12-25T07:28:35.869Z,3.30
2018-12-25T07:31:16.548Z,3.20
2018-12-25T07:33:58.077Z,3.30
2018-12-25T07:36:39.558Z,3.20
2018-12-25T07:39:20.964Z,3.20
2018-12-25T07:42:01.995Z,3.20
2018-12-25T07:44:43.610Z,3.20
2018-12-25T07:47:24.326Z,3.20
2018-12-25T07:50:05.119Z,3.20
2018-12-25T07:52:46.655Z,3.20
2018-12-25T07:55:27.533Z,3.20
2018-12-25T07:58:08.520Z,3.20
2018-12-25T08:00:49.939Z,3.20
2018-12-25T08:03:31.545Z,3.20
2018-12-25T08:06:12.472Z,3.20
2018-12-25T08:08:53.994Z,3.20
2018-12-25T08:11:35.412Z,3.30
2018-12-25T08:14:17.030Z,3.30
2018-12-25T08:16:58.474Z,3.20
2018-12-25T08:19:39.114Z,3.20
2018-12-25T08:22:19.839Z,3.20
2018-12-25T08:25:01.374Z,3.20
2018-12-25T08:27:42.792Z,3.30
2018-12-25T08:30:24.136Z,3.30
2018-12-25T08:33:05.441Z,3.20
2018-12-25T08:35:46.924Z,3.30
2018-12-25T08:38:28.372Z,3.30
2018-12-25T08:41:09.861Z,3.30
2018-12-25T08:43:50.634Z,3.30
2018-12-25T08:46:31.439Z,3.30
2018-12-25T08:49:12.866Z,3.30
2018-12-25T08:51:54.310Z,3.30
2018-12-25T08:54:35.006Z,3.30
2018-12-25T08:57:15.908Z,3.30
2018-12-25T08:59:56.712Z,3.30
2018-12-25T09:02:38.313Z,3.30
2018-12-25T09:05:19.164Z,3.30
2018-12-25T09:08:00.616Z,3.30
2018-12-25T09:10:42.058Z,3.30
2018-12-25T09:13:22.849Z,3.30
2018-12-25T09:16:03.629Z,3.30
2018-12-25T09:18:45.083Z,3.30
2018-12-25T09:21:26.745Z,3.30
2018-12-25T09:24:08.231Z,3.30
2018-12-25T09:26:48.897Z,3.30
2018-12-25T09:29:30.362Z,3.30
2018-12-25T09:32:11.191Z,3.10
2018-12-25T09:34:52.530Z,3.00
2018-12-25T09:37:34.043Z,3.00
2018-12-25T09:40:15.536Z,3.20
2018-12-25T09:42:57.100Z,3.30
2018-12-25T09:45:37.700Z,3.20
2018-12-25T09:48:18.592Z,3.20
2018-12-25T09:50:59.186Z,3.20
2018-12-25T09:53:40.006Z,3.30
2018-12-25T09:56:20.769Z,3.30
2018-12-25T09:59:01.512Z,3.30
2018-12-25T10:01:43.030Z,3.30
2018-12-25T10:04:24.573Z,3.20
2018-12-25T10:07:06.135Z,3.30
2018-12-25T10:09:47.789Z,3.30
2018-12-25T10:12:30.150Z,3.30
2018-12-25T10:15:11.517Z,3.20
2018-12-25T10:17:52.466Z,3.40
2018-12-25T10:20:33.823Z,3.10
2018-12-25T10:23:15.121Z,3.10
2018-12-25T10:25:56.676Z,3.30
2018-12-25T10:28:38.151Z,3.30
2018-12-25T10:31:19.787Z,3.40
2018-12-25T10:34:01.500Z,3.30
2018-12-25T10:36:42.538Z,3.40
2018-12-25T10:39:23.369Z,3.40
2018-12-25T10:42:04.949Z,3.40
2018-12-25T10:44:45.875Z,3.50
2018-12-25T10:47:27.329Z,3.50
2018-12-25T10:50:08.990Z,3.60
2018-12-25T10:52:50.548Z,3.60
2018-12-25T10:55:32.044Z,3.60
2018-12-25T10:58:13.708Z,3.50
2018-12-25T11:00:54.856Z,3.50
2018-12-25T11:03:36.296Z,3.50
2018-12-25T11:06:17.858Z,3.60
2018-12-25T11:08:58.593Z,3.60
2018-12-25T11:11:39.367Z,3.50
2018-12-25T11:14:20.492Z,3.60
2018-12-25T11:17:01.602Z,3.50
2018-12-25T11:19:42.940Z,3.50
2018-12-25T11:22:24.428Z,3.50
2018-12-25T11:25:05.122Z,3.50
2018-12-25T11:27:45.743Z,3.60
2018-12-25T11:30:27.126Z,3.50
2018-12-25T11:33:07.795Z,3.40
2018-12-25T11:35:49.289Z,3.50
2018-12-25T11:38:30.870Z,3.50
2018-12-25T11:41:12.407Z,3.60
2018-12-25T11:43:53.196Z,3.60
2018-12-25T11:46:33.870Z,3.60
2018-12-25T11:49:14.672Z,3.60
2018-12-25T11:51:55.573Z,3.60
2018-12-25T11:54:36.653Z,3.60
2018-12-25T11:57:17.453Z,3.60
2018-12-25T11:59:58.209Z,3.60
2018-12-25T12:02:38.952Z,3.60
2018-12-25T12:05:20.058Z,3.50
2018-12-25T12:08:00.852Z,3.60
2018-12-25T12:10:43.137Z,3.60
2018-12-25T12:13:23.837Z,3.60
2018-12-25T12:16:04.681Z,3.60
2018-12-25T12:18:46.093Z,3.60
2018-12-25T12:21:26.946Z,3.60
2018-12-25T12:24:07.770Z,3.50
2018-12-25T12:26:49.254Z,3.50
2018-12-25T12:29:30.123Z,3.50
2018-12-25T12:32:11.606Z,3.40
2018-12-25T12:34:52.334Z,3.40
2018-12-25T12:37:33.407Z,3.30
2018-12-25T12:40:15.047Z,3.50
2018-12-25T12:42:56.151Z,3.40
2018-12-25T12:45:37.606Z,3.50
2018-12-25T12:48:19.222Z,3.50
2018-12-25T12:51:00.719Z,3.50
2018-12-25T12:53:41.388Z,3.40
2018-12-25T12:56:25.833Z,3.40
2018-12-25T12:59:07.540Z,2.90
2018-12-25T13:01:48.191Z,3.00
2018-12-25T13:04:28.981Z,3.30
2018-12-25T13:07:09.891Z,3.50
2018-12-25T13:09:51.354Z,3.20
2018-12-25T13:12:32.978Z,3.40
2018-12-25T13:15:13.753Z,3.50
2018-12-25T13:17:55.244Z,3.50
2018-12-25T13:20:36.651Z,3.50
2018-12-25T13:23:17.906Z,3.60
2018-12-25T13:25:59.488Z,3.60
2018-12-25T13:28:41.059Z,3.30
2018-12-25T13:31:22.678Z,3.40
2018-12-25T13:34:04.257Z,3.40
2018-12-25T13:36:44.998Z,3.40
2018-12-25T13:39:26.697Z,3.30
2018-12-25T13:42:07.286Z,3.50
2018-12-25T13:44:48.685Z,3.60
2018-12-25T13:47:29.342Z,3.60
2018-12-25T13:50:10.033Z,3.60
2018-12-25T13:52:50.745Z,3.60
2018-12-25T13:55:31.634Z,3.60
2018-12-25T13:58:13.051Z,3.50
2018-12-25T14:00:54.527Z,3.50
2018-12-25T14:03:35.906Z,3.60
2018-12-25T14:06:17.418Z,3.50
2018-12-25T14:08:58.258Z,3.50
2018-12-25T14:11:39.075Z,3.50
2018-12-25T14:14:20.486Z,3.50
2018-12-25T14:17:01.247Z,3.50
2018-12-25T14:19:42.616Z,3.60
2018-12-25T14:22:23.512Z,3.50
2018-12-25T14:25:05.103Z,3.50
2018-12-25T14:27:45.804Z,3.60
2018-12-25T14:30:27.311Z,3.50
2018-12-25T14:33:08.817Z,3.50
2018-12-25T14:35:50.358Z,3.50
2018-12-25T14:38:31.099Z,3.50
2018-12-25T14:41:11.854Z,3.50
2018-12-25T14:43:53.397Z,3.50
2018-12-25T14:46:34.716Z,3.50
2018-12-25T14:49:15.782Z,3.50
2018-12-25T14:51:56.586Z,3.40
2018-12-25T14:54:38.182Z,3.40
2018-12-25T14:57:19.791Z,3.40
2018-12-25T15:00:00.575Z,3.40
2018-12-25T15:02:42.191Z,3.40
2018-12-25T15:05:22.954Z,3.40
2018-12-25T15:08:04.349Z,3.40
2018-12-25T15:10:45.749Z,3.40
2018-12-25T15:13:26.968Z,3.40
2018-12-25T15:16:08.621Z,3.40
2018-12-25T15:18:50.007Z,3.40
2018-12-25T15:21:32.271Z,3.40
2018-12-25T15:24:13.454Z,3.30
2018-12-25T15:26:54.254Z,3.30
2018-12-25T15:29:35.905Z,3.30
2018-12-25T15:32:16.626Z,3.30
2018-12-25T15:34:58.010Z,3.30
2018-12-25T15:37:38.727Z,3.30
2018-12-25T15:40:19.477Z,3.30
2018-12-25T15:43:00.403Z,3.20
2018-12-25T15:45:41.181Z,3.20
2018-12-25T15:48:22.822Z,3.20
2018-12-25T15:51:04.353Z,3.20
2018-12-25T15:53:45.488Z,3.20
2018-12-25T15:56:26.819Z,3.10
2018-12-25T15:59:08.209Z,3.20
2018-12-25T16:01:48.939Z,3.20
2018-12-25T16:04:29.887Z,3.10
2018-12-25T16:07:10.861Z,3.20
2018-12-25T16:09:51.635Z,3.20
2018-12-25T16:12:32.395Z,3.20
2018-12-25T16:15:14.377Z,3.10
2018-12-25T16:17:55.391Z,3.20
2018-12-25T16:20:36.917Z,3.10
2018-12-25T16:23:17.822Z,3.10
2018-12-25T16:25:59.479Z,3.20
2018-12-25T16:28:41.212Z,3.20
2018-12-25T16:31:22.529Z,3.10
2018-12-25T16:34:03.827Z,3.10
2018-12-25T16:36:45.371Z,3.00
2018-12-25T16:39:26.310Z,3.10
2018-12-25T16:42:07.862Z,3.10
2018-12-25T16:44:49.421Z,3.10
2018-12-25T16:47:30.926Z,3.10
2018-12-25T16:50:11.778Z,3.10
2018-12-25T16:52:53.584Z,3.00
2018-12-25T16:55:34.985Z,3.00
2018-12-25T16:58:16.378Z,3.00
2018-12-25T17:00:57.967Z,3.00
2018-12-25T17:03:39.365Z,2.90
2018-12-25T17:06:20.363Z,2.90
2018-12-25T17:09:01.113Z,2.90
2018-12-25T17:11:42.634Z,2.90
2018-12-25T17:14:24.134Z,2.90
2018-12-25T17:17:04.796Z,2.90
2018-12-25T17:22:54.003Z,2.80
2018-12-25T17:25:35.390Z,2.90
2018-12-25T17:28:16.230Z,2.80
2018-12-25T17:30:56.902Z,2.80
2018-12-25T17:33:37.754Z,2.80
2018-12-25T17:36:18.689Z,2.80
2018-12-25T17:39:00.212Z,2.80
2018-12-25T17:41:41.618Z,2.80
2018-12-25T17:44:22.344Z,2.80
2018-12-25T17:47:02.998Z,2.80
2018-12-25T17:49:44.554Z,2.80
2018-12-25T17:52:26.082Z,2.80
2018-12-25T17:55:06.882Z,2.70
2018-12-25T17:57:48.617Z,2.80
2018-12-25T18:00:29.782Z,2.80
2018-12-25T18:03:11.470Z,2.70
2018-12-25T18:05:53.091Z,2.70
2018-12-25T18:08:34.656Z,2.70
2018-12-25T18:11:15.927Z,2.70
2018-12-25T18:13:57.350Z,2.70
2018-12-25T18:16:38.935Z,2.70
2018-12-25T18:19:19.925Z,2.70
2018-12-25T18:22:01.433Z,2.60
2018-12-25T18:24:42.857Z,2.60
2018-12-25T18:27:23.638Z,2.60
2018-12-25T18:30:04.953Z,2.60
2018-12-25T18:32:45.674Z,2.60
2018-12-25T18:35:27.408Z,2.60
2018-12-25T18:38:08.119Z,2.60
2018-12-25T18:40:49.688Z,2.50
2018-12-25T18:43:31.283Z,2.50
2018-12-25T18:46:12.725Z,2.50
2018-12-25T18:48:53.548Z,2.50
2018-12-25T18:51:34.347Z,2.50
2018-12-25T18:54:15.664Z,2.50
2018-12-25T18:56:57.117Z,2.50
2018-12-25T18:59:38.561Z,2.50
2018-12-25T19:02:19.898Z,2.50
2018-12-25T19:05:01.303Z,2.40
2018-12-25T19:07:42.109Z,2.40
2018-12-25T19:10:22.812Z,2.40
2018-12-25T19:13:03.506Z,2.40
2018-12-25T19:15:45.120Z,2.40
2018-12-25T19:18:25.918Z,2.40
2018-12-25T19:21:07.192Z,2.40
2018-12-25T19:23:48.288Z,2.40
2018-12-25T19:26:29.010Z,2.40
2018-12-25T19:29:10.453Z,2.40
2018-12-25T19:31:51.321Z,2.40
2018-12-25T19:34:32.280Z,2.40
2018-12-25T19:37:13.853Z,2.40
2018-12-25T19:39:55.286Z,2.30
2018-12-25T19:42:36.181Z,2.30
2018-12-25T19:45:19.662Z,2.40
2018-12-25T19:48:01.020Z,2.30
2018-12-25T19:50:42.433Z,2.30
2018-12-25T19:53:23.265Z,2.20
2018-12-25T19:56:04.525Z,2.20
2018-12-25T19:58:45.465Z,2.20
2018-12-25T20:01:26.490Z,2.20
2018-12-25T20:04:07.824Z,2.20
2018-12-25T20:06:49.314Z,2.10
2018-12-25T20:09:30.158Z,2.10
2018-12-25T20:12:11.642Z,2.10
2018-12-25T20:14:52.405Z,2.10
2018-12-25T20:17:33.922Z,2.10
2018-12-25T20:20:14.886Z,2.10
2018-12-25T20:22:56.541Z,2.10
2018-12-25T20:25:37.276Z,2.10
2018-12-25T20:28:18.894Z,2.10
2018-12-25T20:31:00.337Z,2.10
2018-12-25T20:33:41.291Z,2.10
2018-12-25T20:36:22.827Z,2.10
2018-12-25T20:39:04.753Z,2.10
2018-12-25T20:41:46.022Z,2.00
2018-12-25T20:44:27.023Z,2.00
2018-12-25T20:47:07.829Z,2.00
2018-12-25T20:49:49.329Z,2.00
2018-12-25T20:52:30.428Z,2.00
2018-12-25T20:55:13.890Z,2.00
2018-12-25T20:57:54.339Z,2.00
2018-12-25T21:00:35.859Z,1.90
2018-12-25T21:03:17.273Z,1.90
2018-12-25T21:05:58.070Z,2.00
2018-12-25T21:08:38.750Z,2.00
2018-12-25T21:11:19.738Z,2.00
2018-12-25T21:14:00.518Z,2.00
2018-12-25T21:16:41.727Z,1.90
2018-12-25T21:19:23.378Z,1.90
2018-12-25T21:22:04.717Z,1.90
2018-12-25T21:24:45.455Z,1.90
2018-12-25T21:27:26.337Z,1.80
2018-12-25T21:30:07.783Z,1.80
2018-12-25T21:32:48.494Z,1.90
2018-12-25T21:35:30.093Z,1.90
2018-12-25T21:38:10.672Z,1.90
2018-12-25T21:40:51.493Z,1.80
2018-12-25T21:43:32.148Z,1.80
2018-12-25T21:46:12.829Z,1.80
2018-12-25T21:48:53.512Z,1.80
2018-12-25T21:51:35.095Z,1.80
2018-12-25T21:54:15.914Z,1.70
2018-12-25T21:56:57.494Z,1.70
2018-12-25T21:59:38.471Z,1.70
2018-12-25T22:02:19.802Z,1.70
2018-12-25T22:05:01.417Z,1.70
2018-12-25T22:07:42.106Z,1.70
2018-12-25T22:10:23.639Z,1.70
2018-12-25T22:13:04.926Z,1.60
2018-12-25T22:15:46.226Z,1.60
2018-12-25T22:18:27.673Z,1.60
2018-12-25T22:21:08.420Z,1.70
2018-12-25T22:23:49.842Z,1.70
2018-12-25T22:26:30.581Z,1.70
2018-12-25T22:29:12.026Z,1.60
2018-12-25T22:31:52.687Z,1.60
2018-12-25T22:34:33.422Z,1.60
2018-12-25T22:37:14.201Z,1.60
2018-12-25T22:39:55.505Z,1.60
2018-12-25T22:42:36.232Z,1.60
2018-12-25T22:45:16.905Z,1.60
2018-12-25T22:47:58.698Z,1.60
2018-12-25T22:50:39.299Z,1.50
2018-12-25T22:53:20.022Z,1.50
2018-12-25T22:56:01.483Z,1.50
2018-12-25T22:58:42.144Z,1.50
2018-12-25T23:01:22.989Z,1.50
2018-12-25T23:04:04.584Z,1.40
2018-12-25T23:06:45.774Z,1.40
2018-12-25T23:09:27.401Z,1.50
2018-12-25T23:12:08.087Z,1.40
2018-12-25T23:14:48.945Z,1.40
2018-12-25T23:17:29.777Z,1.40
2018-12-25T23:20:11.258Z,1.40
2018-12-25T23:22:52.866Z,1.40
2018-12-25T23:25:33.790Z,1.40
2018-12-25T23:28:14.576Z,1.30
2018-12-25T23:30:55.310Z,1.40
2018-12-25T23:33:36.011Z,1.40
2018-12-25T23:36:17.556Z,1.40
2018-12-25T23:38:58.356Z,1.30
2018-12-25T23:41:39.825Z,1.30
2018-12-25T23:44:21.176Z,1.30
2018-12-25T23:47:02.712Z,1.30
2018-12-25T23:49:43.409Z,1.40
2018-12-25T23:52:24.099Z,1.30
2018-12-25T23:55:05.739Z,1.30
2018-12-25T23:57:46.899Z,1.20
